Time;durP1;ratioP1;P1;durP2;ratioP2;P2;SDS_P1;SDS_P2;PMS_P1;PMS_P2;Temp;Humidity;BMP_temperature;BMP_pressure;BME280_temperature;BME280_humidity;BME280_pressure;Samples;Min_cycle;Max_cycle;Signal;HPM_P1;HPM_P2
2023/12/21 00:01:47;;;;;;;;;3.67;0.33;;;;;20.49;47.62;101471.78;4918614;28;45583;-76
2023/12/21 00:04:12;;;;;;;;;2.00;0.00;;;;;20.49;47.82;101477.91;4918356;28;45986;-76
2023/12/21 00:06:38;;;;;;;;;1.00;1.00;;;;;20.48;48.09;101481.53;4918415;28;45344;-75
2023/12/21 00:09:06;;;;;;;;;1.00;1.00;;;;;20.48;47.91;101483.38;4918459;28;45460;-75
2023/12/21 00:11:31;;;;;;;;;0.33;0.33;;;;;20.47;47.55;101493.09;4918343;28;45307;-75
2023/12/21 00:13:59;;;;;;;;;0.00;0.00;;;;;20.49;47.48;101466.50;4917812;28;45402;-76
2023/12/21 00:16:24;;;;;;;;;2.00;1.00;;;;;20.47;47.71;101455.25;4918968;28;45368;-75
2023/12/21 00:18:49;;;;;;;;;1.00;0.67;;;;;20.46;47.57;101458.88;4921813;28;45387;-75
2023/12/21 00:21:14;;;;;;;;;2.33;0.67;;;;;20.45;47.95;101452.78;4921558;28;48844;-75
2023/12/21 00:23:40;;;;;;;;;2.33;1.67;;;;;20.46;47.46;101453.59;4921142;28;57490;-75
2023/12/21 00:26:05;;;;;;;;;0.00;0.00;;;;;20.45;47.80;101454.59;4921317;28;52350;-76
2023/12/21 00:28:30;;;;;;;;;1.33;0.33;;;;;20.37;47.83;101436.84;4920994;28;51718;-76
2023/12/21 00:30:56;;;;;;;;;3.67;1.33;;;;;20.45;47.45;101446.66;4921496;28;45203;-75
2023/12/21 00:33:21;;;;;;;;;2.67;0.67;;;;;20.38;47.72;101443.78;4921316;28;46011;-75
2023/12/21 00:35:46;;;;;;;;;2.33;2.00;;;;;20.46;47.94;101461.53;4921624;28;45445;-75
2023/12/21 00:38:12;;;;;;;;;1.67;0.00;;;;;20.25;47.50;101413.31;4921687;28;45477;-75
2023/12/21 00:40:37;;;;;;;;;0.00;0.00;;;;;20.46;47.53;101446.50;4921566;28;45362;-75
2023/12/21 00:43:02;;;;;;;;;1.67;1.00;;;;;20.44;47.51;101450.28;4920960;28;46445;-75
2023/12/21 00:45:28;;;;;;;;;1.00;1.00;;;;;20.45;47.51;101449.31;4921239;28;45284;-76
2023/12/21 00:47:54;;;;;;;;;0.67;0.00;;;;;20.46;47.46;101443.00;4919943;28;45377;-78
2023/12/21 00:50:19;;;;;;;;;0.00;0.00;;;;;20.42;47.36;101415.25;4921286;28;45396;-76
2023/12/21 00:52:44;;;;;;;;;3.67;1.67;;;;;20.44;47.71;101419.38;4921184;28;45898;-75
2023/12/21 00:55:10;;;;;;;;;0.67;0.67;;;;;20.44;47.42;101408.81;4921242;28;45367;-75
2023/12/21 00:57:35;;;;;;;;;0.67;0.67;;;;;20.40;47.62;101396.91;4921038;28;45425;-75
2023/12/21 01:00:01;;;;;;;;;1.00;0.00;;;;;20.44;47.51;101402.69;4921012;28;49350;-75
2023/12/21 01:02:26;;;;;;;;;0.67;0.67;;;;;20.44;47.48;101398.25;4921086;28;47047;-76
2023/12/21 01:04:52;;;;;;;;;0.00;0.00;;;;;20.44;47.62;101405.34;4921196;28;45451;-76
2023/12/21 01:07:17;;;;;;;;;0.33;0.33;;;;;20.39;47.22;101403.16;4921327;28;45700;-76
2023/12/21 01:09:42;;;;;;;;;2.00;1.00;;;;;20.41;47.53;101414.41;4921060;28;45378;-75
2023/12/21 01:12:08;;;;;;;;;3.67;1.00;;;;;20.44;47.65;101405.34;4920529;28;45434;-76
2023/12/21 01:14:33;;;;;;;;;0.33;0.33;;;;;20.38;47.54;101391.75;4920977;28;45340;-76
2023/12/21 01:16:59;;;;;;;;;0.33;0.33;;;;;20.44;47.21;101406.19;4921022;28;45382;-75
2023/12/21 01:19:24;;;;;;;;;0.33;0.33;;;;;20.44;47.45;101398.25;4921126;28;45510;-75
2023/12/21 01:21:50;;;;;;;;;0.67;0.67;;;;;20.44;47.35;101387.69;4920841;28;46182;-75
2023/12/21 01:24:15;;;;;;;;;0.00;0.00;;;;;20.35;47.34;101365.63;4920840;28;45443;-75
2023/12/21 01:26:41;;;;;;;;;0.67;0.67;;;;;20.38;47.27;101367.97;4920702;28;45328;-75
2023/12/21 01:29:06;;;;;;;;;0.33;0.33;;;;;20.42;47.33;101362.38;4920165;28;45550;-75
2023/12/21 01:31:31;;;;;;;;;2.00;1.00;;;;;20.42;47.44;101357.94;4920362;28;51360;-75
2023/12/21 01:33:57;;;;;;;;;0.00;0.00;;;;;20.42;47.50;101357.09;4920751;28;45388;-75
2023/12/21 01:36:22;;;;;;;;;0.00;0.00;;;;;20.37;47.17;101347.84;4920901;28;45193;-75
2023/12/21 01:38:47;;;;;;;;;0.00;0.00;;;;;20.42;47.32;101352.66;4920835;28;45330;-75
2023/12/21 01:41:13;;;;;;;;;0.00;0.00;;;;;20.42;47.33;101344.72;4920220;28;45436;-76
2023/12/21 01:43:38;;;;;;;;;0.00;0.00;;;;;20.43;47.28;101340.28;4920527;28;45331;-75
2023/12/21 01:46:04;;;;;;;;;1.33;1.33;;;;;20.42;47.21;101342.06;4920475;28;45865;-74
2023/12/21 01:48:31;;;;;;;;;1.33;0.67;;;;;20.32;47.32;101322.88;4920418;28;45521;-75
2023/12/21 01:51:01;;;;;;;;;2.00;0.67;;;;;20.43;47.48;101345.56;4920220;28;46340;-75
2023/12/21 01:53:28;;;;;;;;;0.00;0.00;;;;;20.43;47.12;101337.63;4919990;28;45326;-75
2023/12/21 01:55:54;;;;;;;;;1.67;1.00;;;;;20.38;47.46;101332.78;4920376;28;45343;-75
2023/12/21 01:58:20;;;;;;;;;3.67;1.00;;;;;20.43;47.42;101327.06;4920233;28;45481;-75
2023/12/21 02:00:45;;;;;;;;;1.67;0.67;;;;;20.27;47.15;101289.78;4920154;28;45456;-75
2023/12/21 02:03:11;;;;;;;;;2.33;1.00;;;;;20.42;47.21;101320.09;4920174;28;45450;-75
2023/12/21 02:05:36;;;;;;;;;0.33;0.33;;;;;20.33;47.50;101306.00;4920364;28;45369;-75
2023/12/21 02:08:01;;;;;;;;;0.67;0.67;;;;;20.40;47.50;101330.84;4920010;28;45430;-75
2023/12/21 02:10:26;;;;;;;;;0.33;0.33;;;;;20.39;47.21;101337.94;4918734;28;47231;-75
2023/12/21 02:12:52;;;;;;;;;1.67;1.67;;;;;20.38;47.35;101340.72;4919670;28;55897;-75
2023/12/21 02:15:18;;;;;;;;;1.67;1.00;;;;;20.40;47.43;101331.66;4920271;28;45476;-76
2023/12/21 02:17:47;;;;;;;;;2.67;1.00;;;;;20.40;47.05;101328.19;4920175;28;45403;-75
2023/12/21 02:20:14;;;;;;;;;0.67;0.00;;;;;20.40;47.22;101314.97;4919717;28;46224;-76
2023/12/21 02:22:42;;;;;;;;;0.67;0.67;;;;;20.38;47.39;101320.41;4919475;28;45699;-76
2023/12/21 02:25:08;;;;;;;;;0.67;0.67;;;;;20.38;47.23;101328.34;4920039;28;45335;-76
2023/12/21 02:27:33;;;;;;;;;1.33;0.33;;;;;20.35;47.09;101315.44;4919968;28;45405;-76
2023/12/21 02:29:59;;;;;;;;;2.00;0.67;;;;;20.38;47.60;101323.06;4919890;28;46340;-76
2023/12/21 02:32:24;;;;;;;;;0.67;0.67;;;;;20.38;47.54;101312.47;4919842;28;45387;-76
2023/12/21 02:34:49;;;;;;;;;0.33;0.33;;;;;20.38;47.61;101296.63;4919782;28;45272;-76
2023/12/21 02:37:15;;;;;;;;;1.67;1.00;;;;;20.38;47.38;101296.63;4919679;28;45280;-76
2023/12/21 02:39:40;;;;;;;;;1.33;0.33;;;;;20.39;47.38;101294.81;4919586;28;45345;-75
2023/12/21 02:42:05;;;;;;;;;0.67;0.67;;;;;20.39;47.35;101279.78;4918092;28;55579;-76
2023/12/21 02:44:31;;;;;;;;;1.67;0.00;;;;;20.42;47.03;101280.44;4919641;28;45318;-76
2023/12/21 02:46:58;;;;;;;;;0.33;0.00;;;;;20.40;47.14;101278.78;4919798;28;45343;-76
2023/12/21 02:49:23;;;;;;;;;0.67;0.67;;;;;20.40;47.26;101284.06;4919419;28;46210;-75
2023/12/21 02:51:49;;;;;;;;;1.67;0.67;;;;;20.38;47.38;101277.28;4919341;28;45350;-75
2023/12/21 02:54:14;;;;;;;;;0.67;0.67;;;;;20.37;47.04;101262.44;4919672;28;45316;-75
2023/12/21 02:56:39;;;;;;;;;4.00;0.67;;;;;20.39;47.30;101274.50;4919533;28;49719;-76
2023/12/21 02:59:04;;;;;;;;;1.00;0.67;;;;;20.42;46.97;101268.06;4919416;28;47207;-75
2023/12/21 03:01:30;;;;;;;;;2.67;1.33;;;;;20.39;47.11;101265.75;4919464;28;45279;-75
2023/12/21 03:03:55;;;;;;;;;3.33;1.33;;;;;20.35;47.39;101256.50;4919542;28;45401;-75
2023/12/21 03:06:20;;;;;;;;;1.67;0.00;;;;;20.39;47.06;101271.84;4919319;28;45359;-75
2023/12/21 03:08:46;;;;;;;;;3.00;1.33;;;;;20.35;47.27;101262.56;4919429;28;48819;-75
2023/12/21 03:11:11;;;;;;;;;6.00;2.00;;;;;20.42;47.22;101275.16;4919295;28;45406;-76
2023/12/21 03:13:37;;;;;;;;;0.67;0.67;;;;;20.40;47.33;101272.69;4919298;28;45410;-75
2023/12/21 03:16:06;;;;;;;;;0.67;0.67;;;;;20.42;47.52;101275.16;4918156;28;45377;-75
2023/12/21 03:18:31;;;;;;;;;0.67;0.67;;;;;20.39;47.07;101277.16;4919315;28;46274;-76
2023/12/21 03:20:57;;;;;;;;;0.33;0.00;;;;;20.39;47.44;101279.78;4918735;28;45375;-75
2023/12/21 03:23:23;;;;;;;;;2.67;2.00;;;;;20.39;47.37;101276.31;4919493;28;45415;-76
2023/12/21 03:25:48;;;;;;;;;0.67;0.67;;;;;20.39;47.25;101266.56;4919203;28;45344;-75
2023/12/21 03:28:14;;;;;;;;;0.00;0.00;;;;;20.40;47.19;101248.91;4919167;28;45447;-76
2023/12/21 03:30:39;;;;;;;;;3.00;0.00;;;;;20.40;46.93;101248.91;4918887;28;45375;-75
2023/12/21 03:33:05;;;;;;;;;1.00;1.00;;;;;20.37;47.14;101242.13;4918957;28;45580;-75
2023/12/21 03:35:30;;;;;;;;;0.67;0.67;;;;;20.38;47.24;101242.94;4918550;28;45468;-75
2023/12/21 03:37:55;;;;;;;;;0.67;0.67;;;;;20.37;47.44;101236.84;4918756;28;46303;-75
2023/12/21 03:40:21;;;;;;;;;1.33;0.67;;;;;20.35;47.39;101211.56;4919366;28;55821;-75
2023/12/21 03:42:51;;;;;;;;;1.00;1.00;;;;;20.39;47.33;101218.16;4919216;28;45303;-75
2023/12/21 03:45:17;;;;;;;;;0.00;0.00;;;;;20.39;47.31;101210.25;4918723;28;45399;-75
2023/12/21 03:47:42;;;;;;;;;0.00;0.00;;;;;20.39;46.85;101211.06;4918273;28;45334;-75
2023/12/21 03:50:08;;;;;;;;;1.00;1.00;;;;;20.39;47.30;101205.78;4918222;28;45438;-75
2023/12/21 03:52:33;;;;;;;;;1.00;0.67;;;;;20.39;47.22;101205.78;4916958;28;45499;-76
2023/12/21 03:54:58;;;;;;;;;0.67;0.67;;;;;20.38;47.29;101190.91;4918692;28;45400;-76
2023/12/21 03:57:24;;;;;;;;;1.00;0.33;;;;;20.39;47.21;101191.75;4918524;28;45364;-75
2023/12/21 03:59:49;;;;;;;;;4.67;1.00;;;;;20.39;47.35;101184.66;4918345;28;47882;-76
2023/12/21 04:02:14;;;;;;;;;4.00;0.67;;;;;20.39;47.03;101189.94;4918253;28;50522;-75
2023/12/21 04:04:39;;;;;;;;;2.00;1.00;;;;;20.40;47.27;101185.47;4917733;28;60958;-75
2023/12/21 04:07:05;;;;;;;;;0.33;0.33;;;;;20.34;47.47;101173.72;4918294;28;48771;-75
2023/12/21 04:09:30;;;;;;;;;2.67;1.67;;;;;20.39;47.25;101195.22;4918388;28;45367;-76
2023/12/21 04:11:55;;;;;;;;;0.67;0.33;;;;;20.39;47.23;101183.81;4918151;28;47071;-75
2023/12/21 04:14:21;;;;;;;;;1.67;1.67;;;;;20.39;46.90;101179.34;4917652;28;65128;-76
2023/12/21 04:16:46;;;;;;;;;0.67;0.67;;;;;20.38;46.98;101180.34;4918222;28;46198;-76
2023/12/21 04:19:11;;;;;;;;;0.67;0.67;;;;;20.40;47.31;101174.91;4917990;28;45354;-76
2023/12/21 04:21:37;;;;;;;;;0.67;0.67;;;;;20.38;47.12;101177.69;4918415;28;45402;-76
2023/12/21 04:24:02;;;;;;;;;1.00;1.00;;;;;20.41;47.03;101168.63;4918250;28;45414;-75
2023/12/21 04:26:28;;;;;;;;;1.33;1.33;;;;;20.38;47.36;101169.75;4918312;28;46137;-76
2023/12/21 04:28:53;;;;;;;;;3.33;0.67;;;;;20.40;47.04;101169.63;4918247;28;45391;-75
2023/12/21 04:31:19;;;;;;;;;3.00;0.67;;;;;20.40;47.30;101159.06;4918204;28;45412;-75
2023/12/21 04:33:45;;;;;;;;;0.67;0.67;;;;;20.40;47.06;101148.47;4917831;28;45371;-75
2023/12/21 04:36:10;;;;;;;;;1.67;0.67;;;;;20.36;46.91;101142.69;4917955;28;46143;-75
2023/12/21 04:38:37;;;;;;;;;1.33;1.33;;;;;20.39;46.98;101150.28;4918046;28;45287;-76
2023/12/21 04:41:02;;;;;;;;;0.33;0.33;;;;;20.39;47.25;101144.16;4918125;28;45325;-76
2023/12/21 04:43:28;;;;;;;;;0.00;0.00;;;;;20.39;47.21;101141.53;4917943;28;45375;-75
2023/12/21 04:45:53;;;;;;;;;2.33;1.33;;;;;20.39;47.02;101128.31;4916614;28;46001;-75
2023/12/21 04:48:20;;;;;;;;;1.67;1.67;;;;;20.39;47.05;101129.16;4917156;28;45399;-76
2023/12/21 04:50:45;;;;;;;;;1.00;1.00;;;;;20.40;47.20;101145.84;4918125;28;45454;-75
2023/12/21 04:53:10;;;;;;;;;5.33;1.67;;;;;20.40;47.09;101116.75;4917871;28;45328;-76
2023/12/21 04:55:36;;;;;;;;;2.33;0.67;;;;;20.33;47.26;101098.06;4917928;28;46157;-74
2023/12/21 04:58:01;;;;;;;;;0.33;0.33;;;;;20.40;47.05;101098.25;4917761;28;46619;-75
2023/12/21 05:00:29;;;;;;;;;1.00;1.00;;;;;20.37;47.14;101083.56;4917952;28;45423;-75
2023/12/21 05:02:54;;;;;;;;;0.00;0.00;;;;;20.30;46.95;101071.97;4917471;28;45383;-76
2023/12/21 05:05:21;;;;;;;;;1.00;1.00;;;;;20.40;47.28;101079.75;4919649;28;47009;-76
2023/12/21 05:07:46;;;;;;;;;1.33;0.00;;;;;20.34;47.22;101054.81;4921088;28;45368;-76
2023/12/21 05:10:12;;;;;;;;;4.00;1.67;;;;;20.36;46.90;101066.03;4920900;28;45232;-75
2023/12/21 05:12:37;;;;;;;;;2.33;0.67;;;;;20.35;47.22;101074.16;4920936;28;45562;-76
2023/12/21 05:15:03;;;;;;;;;0.67;0.67;;;;;20.40;47.18;101082.41;4920851;28;46240;-75
2023/12/21 05:17:28;;;;;;;;;0.67;0.67;;;;;20.40;47.36;101088.50;4920658;28;45461;-75
2023/12/21 05:19:54;;;;;;;;;0.67;0.67;;;;;20.40;46.86;101087.69;4921123;28;45300;-75
2023/12/21 05:22:19;;;;;;;;;1.67;0.67;;;;;20.40;47.18;101092.97;4920901;28;45358;-75
2023/12/21 05:24:44;;;;;;;;;3.00;1.00;;;;;20.39;47.21;101089.50;4920892;28;46932;-75
2023/12/21 05:27:10;;;;;;;;;1.67;0.67;;;;;20.37;46.80;101077.44;4920766;28;45364;-76
2023/12/21 05:29:35;;;;;;;;;1.00;1.00;;;;;20.34;47.33;101075.94;4920796;28;45442;-75
2023/12/21 05:32:01;;;;;;;;;0.67;0.33;;;;;20.40;47.20;101064.72;4920050;28;46763;-76
2023/12/21 05:34:26;;;;;;;;;1.67;0.67;;;;;20.40;47.25;101074.47;4920585;28;45360;-75
2023/12/21 05:36:51;;;;;;;;;1.00;1.00;;;;;20.36;47.31;101073.13;4920549;28;45477;-76
2023/12/21 05:39:17;;;;;;;;;1.33;0.67;;;;;20.39;47.01;101076.28;4920921;28;45431;-75
2023/12/21 05:41:42;;;;;;;;;1.00;1.00;;;;;20.39;47.10;101064.88;4920516;28;45372;-75
2023/12/21 05:44:07;;;;;;;;;1.00;0.67;;;;;20.40;46.89;101063.91;4920223;28;46644;-75
2023/12/21 05:46:33;;;;;;;;;0.67;0.67;;;;;20.39;47.36;101057.78;4920111;28;45370;-75
2023/12/21 05:48:58;;;;;;;;;1.33;0.00;;;;;20.40;46.88;101062.06;4920131;28;45522;-74
2023/12/21 05:51:24;;;;;;;;;0.33;0.33;;;;;20.37;47.37;101058.94;4920396;28;45260;-76
2023/12/21 05:53:49;;;;;;;;;0.67;0.67;;;;;20.30;46.94;101045.53;4920149;28;46293;-76
2023/12/21 05:56:14;;;;;;;;;1.00;0.00;;;;;20.40;47.28;101071.84;4920361;28;45406;-75
2023/12/21 05:58:40;;;;;;;;;1.00;1.00;;;;;20.42;46.92;101082.22;4920474;28;45433;-75
2023/12/21 06:01:05;;;;;;;;;0.33;0.33;;;;;20.41;47.06;101089.31;4920091;28;45430;-76
2023/12/21 06:03:30;;;;;;;;;0.00;0.00;;;;;20.40;46.96;101070.00;4920129;28;46186;-76
2023/12/21 06:05:56;;;;;;;;;0.67;0.67;;;;;20.40;47.13;101067.34;4920285;28;45395;-76
2023/12/21 06:08:21;;;;;;;;;1.67;1.67;;;;;20.39;47.36;101056.97;4920307;28;45356;-75
2023/12/21 06:10:47;;;;;;;;;0.67;0.67;;;;;20.40;47.21;101048.84;4918863;28;45438;-76
2023/12/21 06:13:12;;;;;;;;;1.00;0.67;;;;;20.42;47.32;101058.44;4919844;28;47057;-75
2023/12/21 06:15:37;;;;;;;;;0.33;0.33;;;;;20.38;46.98;101044.72;4919465;28;45223;-75
2023/12/21 06:18:03;;;;;;;;;0.00;0.00;;;;;20.36;46.91;101044.06;4920111;28;45338;-75
2023/12/21 06:20:30;;;;;;;;;2.00;1.00;;;;;20.39;47.39;101051.69;4920170;28;45459;-75
2023/12/21 06:22:55;;;;;;;;;0.67;0.67;;;;;20.38;46.92;101034.16;4919798;28;46350;-75
2023/12/21 06:25:21;;;;;;;;;3.33;0.33;;;;;20.37;47.16;101033.34;4919833;28;45379;-75
2023/12/21 06:27:47;;;;;;;;;2.00;2.00;;;;;20.38;47.30;101028.88;4919934;28;45482;-75
2023/12/21 06:30:12;;;;;;;;;0.67;0.67;;;;;20.40;46.87;101033.00;4919467;28;45439;-75
2023/12/21 06:32:38;;;;;;;;;0.67;0.00;;;;;20.20;47.10;100992.03;4919599;28;46576;-77
2023/12/21 06:35:03;;;;;;;;;1.00;1.00;;;;;20.40;47.02;101037.47;4919675;28;45406;-76
2023/12/21 06:37:29;;;;;;;;;0.33;0.33;;;;;20.40;47.36;101034.84;4919871;28;45312;-74
2023/12/21 06:39:54;;;;;;;;;0.33;0.33;;;;;20.37;47.57;101032.53;4919683;28;45258;-74
2023/12/21 06:42:20;;;;;;;;;0.00;0.00;;;;;20.42;47.57;101047.88;4919535;28;46168;-73
2023/12/21 06:44:45;;;;;;;;;1.33;1.33;;;;;20.46;47.53;101067.69;4917601;28;45655;-75
2023/12/21 06:47:10;;;;;;;;;0.67;0.67;;;;;20.48;47.83;101066.53;4921487;28;54050;-76
2023/12/21 06:49:36;;;;;;;;;0.33;0.33;;;;;20.39;47.53;101049.88;4918736;28;45494;-76
2023/12/21 06:52:01;;;;;;;;;2.67;0.00;;;;;20.53;47.79;101063.41;4918521;28;46516;-76
2023/12/21 06:54:27;;;;;;;;;1.67;1.00;;;;;20.38;47.58;101042.91;4921283;28;45455;-76
2023/12/21 06:56:52;;;;;;;;;1.00;1.00;;;;;20.56;47.89;101059.59;4918620;28;45296;-76
2023/12/21 06:59:17;;;;;;;;;1.33;0.33;;;;;20.56;47.67;101051.66;4920693;28;45458;-77
2023/12/21 07:01:43;;;;;;;;;1.00;0.67;;;;;20.53;48.13;101031.69;4918631;28;47013;-75
2023/12/21 07:04:08;;;;;;;;;0.00;0.00;;;;;20.50;47.82;101046.06;4919364;28;45768;-76
2023/12/21 07:06:34;;;;;;;;;0.67;0.67;;;;;20.56;47.71;101044.56;4919278;28;45411;-76
2023/12/21 07:08:59;;;;;;;;;0.67;0.33;;;;;20.49;47.94;101041.78;4919340;28;45470;-76
2023/12/21 07:11:25;;;;;;;;;0.33;0.33;;;;;20.56;47.82;101052.50;4918751;28;46130;-76
2023/12/21 07:13:50;;;;;;;;;0.67;0.00;;;;;20.54;47.95;101038.63;4918195;28;45288;-76
2023/12/21 07:16:15;;;;;;;;;0.33;0.33;;;;;20.55;47.99;101035.00;4919309;28;45792;-80
2023/12/21 07:18:41;;;;;;;;;0.00;0.00;;;;;20.39;47.74;101026.06;4919246;28;45414;-75
2023/12/21 07:21:06;;;;;;;;;0.00;0.00;;;;;20.54;47.88;101059.78;4918626;28;60093;-71
2023/12/21 07:23:32;;;;;;;;;1.00;0.00;;;;;20.53;47.79;101060.78;4918827;28;45505;-72
2023/12/21 07:25:57;;;;;;;;;0.67;0.67;;;;;20.53;47.78;101033.50;4918295;28;45395;-71
2023/12/21 07:28:23;;;;;;;;;0.00;0.00;;;;;20.31;48.25;101034.00;4918720;28;45379;-83
2023/12/21 07:30:49;;;;;;;;;0.67;0.67;;;;;20.53;48.20;101046.72;4918724;28;45454;-74
2023/12/21 07:33:14;;;;;;;;;0.67;0.67;;;;;20.48;48.50;101024.25;4918728;28;45320;-74
2023/12/21 07:35:39;;;;;;;;;0.00;0.00;;;;;20.44;48.02;101007.06;4918503;28;51232;-74
2023/12/21 07:38:06;;;;;;;;;0.00;0.00;;;;;20.54;48.31;101016.66;4933774;28;45516;-74
2023/12/21 07:40:31;;;;;;;;;0.00;0.00;;;;;20.25;48.27;100976.50;4918665;28;45567;-74
2023/12/21 07:42:56;;;;;;;;;1.00;1.00;;;;;20.49;48.22;101012.69;4918047;28;49782;-74
2023/12/21 07:45:21;;;;;;;;;0.00;0.00;;;;;20.44;48.20;101027.38;4918210;28;51580;-74
2023/12/21 07:47:48;;;;;;;;;0.33;0.33;;;;;20.50;48.45;101032.84;4918041;28;56700;-74
2023/12/21 07:50:13;;;;;;;;;0.67;0.33;;;;;20.38;48.11;101027.06;4918339;28;46335;-74
2023/12/21 07:52:39;;;;;;;;;0.33;0.00;;;;;20.50;47.98;101047.88;4918395;28;45310;-74
2023/12/21 07:55:06;;;;;;;;;0.33;0.33;;;;;20.40;48.34;101034.84;4918661;28;45384;-74
2023/12/21 07:57:31;;;;;;;;;2.00;0.00;;;;;20.45;47.90;101023.78;4918297;28;45360;-74
2023/12/21 07:59:56;;;;;;;;;0.00;0.00;;;;;20.50;48.18;101054.00;4918378;28;47917;-74
2023/12/21 08:02:22;;;;;;;;;1.67;0.67;;;;;20.43;48.00;101017.81;4918447;28;45411;-74
2023/12/21 08:04:47;;;;;;;;;3.67;1.00;;;;;20.51;48.09;101044.22;4918235;28;48130;-74
2023/12/21 08:07:12;;;;;;;;;0.00;0.00;;;;;20.48;48.18;101028.72;4918551;28;45366;-74
2023/12/21 08:09:38;;;;;;;;;1.00;0.00;;;;;20.45;47.96;101008.75;4918235;28;47104;-75
2023/12/21 08:12:03;;;;;;;;;0.00;0.00;;;;;20.51;48.18;101015.16;4917895;28;45384;-74
2023/12/21 08:14:31;;;;;;;;;0.67;0.00;;;;;20.43;47.96;101017.81;4918562;28;45272;-74
2023/12/21 08:16:59;;;;;;;;;0.00;0.00;;;;;20.50;47.84;101034.66;4918394;28;45264;-75
2023/12/21 08:19:25;;;;;;;;;0.00;0.00;;;;;20.50;47.77;101027.56;4918255;28;47053;-74
2023/12/21 08:21:50;;;;;;;;;1.33;0.67;;;;;20.50;48.23;101037.31;4918061;28;45435;-74
2023/12/21 08:24:16;;;;;;;;;0.00;0.00;;;;;20.44;47.96;101019.47;4918311;28;45442;-74
2023/12/21 08:26:41;;;;;;;;;1.00;0.67;;;;;20.50;47.84;101045.25;4918046;28;45456;-74
2023/12/21 08:29:07;;;;;;;;;0.67;0.00;;;;;20.47;47.84;101049.03;4918055;28;45430;-74
2023/12/21 08:31:32;;;;;;;;;0.00;0.00;;;;;20.52;48.16;101053.81;4917883;28;45919;-74
2023/12/21 08:33:57;;;;;;;;;0.00;0.00;;;;;20.49;47.61;101039.13;4918408;28;45473;-74
2023/12/21 08:36:23;;;;;;;;;0.00;0.00;;;;;20.48;47.89;101041.94;4918050;28;45503;-74
2023/12/21 08:38:48;;;;;;;;;1.00;0.00;;;;;20.40;47.84;101032.19;4920561;28;46213;-74
2023/12/21 08:41:13;;;;;;;;;0.67;0.67;;;;;20.37;48.04;101022.78;4921068;28;45488;-74
2023/12/21 08:43:39;;;;;;;;;0.00;0.00;;;;;20.49;48.09;101040.94;4921610;28;45403;-74
2023/12/21 08:46:04;;;;;;;;;0.67;0.67;;;;;20.49;48.09;101023.28;4921381;28;45410;-74
2023/12/21 08:48:29;;;;;;;;;0.33;0.33;;;;;20.44;48.31;101022.09;4920875;28;49467;-74
2023/12/21 08:50:55;;;;;;;;;0.33;0.33;;;;;20.23;47.97;101003.09;4921308;28;45529;-75
2023/12/21 08:53:20;;;;;;;;;1.00;1.00;;;;;20.45;47.89;101031.69;4921286;28;45343;-74
2023/12/21 08:55:45;;;;;;;;;1.33;0.33;;;;;20.49;48.40;101046.22;4921008;28;45231;-74
2023/12/21 08:58:11;;;;;;;;;0.00;0.00;;;;;20.50;47.96;101039.97;4921086;28;46962;-74
2023/12/21 09:00:36;;;;;;;;;0.00;0.00;;;;;20.38;47.92;101019.13;4921012;28;48076;-74
2023/12/21 09:03:01;;;;;;;;;0.00;0.00;;;;;20.39;48.01;101023.44;4921254;28;45305;-74
2023/12/21 09:05:27;;;;;;;;;1.00;1.00;;;;;20.46;47.88;101044.72;4921179;28;45287;-75
2023/12/21 09:07:52;;;;;;;;;0.00;0.00;;;;;20.51;47.74;101050.34;4920947;28;46501;-74
2023/12/21 09:10:18;;;;;;;;;0.67;0.33;;;;;20.51;48.00;101047.72;4920610;28;45295;-74
2023/12/21 09:12:43;;;;;;;;;0.00;0.00;;;;;20.51;48.06;101044.22;4921005;28;45509;-74
2023/12/21 09:15:09;;;;;;;;;0.33;0.00;;;;;20.52;48.07;101056.47;4920996;28;45359;-74
2023/12/21 09:17:35;;;;;;;;;0.33;0.33;;;;;20.49;47.84;101054.97;4920746;28;46290;-75
2023/12/21 09:20:01;;;;;;;;;0.67;0.67;;;;;20.51;47.60;101028.38;4920905;28;45377;-74
2023/12/21 09:22:26;;;;;;;;;2.00;0.00;;;;;20.40;47.77;101013.69;4920970;28;45411;-74
2023/12/21 09:24:51;;;;;;;;;1.00;0.33;;;;;20.51;48.19;101028.38;4920117;28;49051;-74
2023/12/21 09:27:16;;;;;;;;;0.33;0.33;;;;;20.50;47.91;101040.78;4920691;28;47099;-74
2023/12/21 09:29:42;;;;;;;;;0.00;0.00;;;;;20.44;47.96;101017.66;4920788;28;45327;-74
2023/12/21 09:32:08;;;;;;;;;1.67;0.00;;;;;20.50;48.09;101024.09;4919523;28;45300;-74
2023/12/21 09:34:34;;;;;;;;;0.00;0.00;;;;;20.50;47.82;101010.88;4920723;28;45244;-74
2023/12/21 09:36:59;;;;;;;;;1.33;0.00;;;;;20.40;48.00;100998.66;4920324;28;46993;-74
2023/12/21 09:39:24;;;;;;;;;0.00;0.00;;;;;20.50;47.80;101018.81;4920209;28;45289;-73
2023/12/21 09:41:50;;;;;;;;;1.00;1.00;;;;;20.46;47.81;101004.25;4920742;28;45269;-74
2023/12/21 09:44:20;;;;;;;;;0.00;0.00;;;;;20.49;48.02;101011.88;4920489;28;45287;-74
2023/12/21 09:46:46;;;;;;;;;1.67;0.67;;;;;20.48;47.76;101031.38;4920361;28;47110;-73
2023/12/21 09:49:16;;;;;;;;;0.67;0.67;;;;;20.48;47.92;101020.81;4919310;28;45552;-74
2023/12/21 09:51:44;;;;;;;;;2.00;1.33;;;;;20.42;47.91;101000.31;4920292;28;45244;-74
2023/12/21 09:54:10;;;;;;;;;1.67;0.00;;;;;20.45;47.71;101003.47;4920131;28;45511;-74
2023/12/21 09:56:35;;;;;;;;;2.33;1.00;;;;;20.48;48.01;101016.31;4920266;28;46127;-74
2023/12/21 09:59:01;;;;;;;;;0.00;0.00;;;;;20.48;47.70;101010.22;4920169;28;45429;-74
2023/12/21 10:01:27;;;;;;;;;0.67;0.00;;;;;20.49;48.15;101011.88;4920358;28;45319;-74
2023/12/21 10:03:52;;;;;;;;;4.00;0.67;;;;;20.48;48.17;101021.59;4920280;28;45379;-73
2023/12/21 10:06:18;;;;;;;;;0.00;0.00;;;;;20.44;47.88;101001.78;4920265;28;46438;-74
2023/12/21 10:08:44;;;;;;;;;0.00;0.00;;;;;20.48;48.12;101026.88;4919826;28;45417;-74
2023/12/21 10:11:09;;;;;;;;;0.00;0.00;;;;;20.51;48.21;101026.56;4920173;28;45388;-74
2023/12/21 10:13:35;;;;;;;;;0.00;0.00;;;;;20.42;47.68;101024.09;4920182;28;45431;-74
2023/12/21 10:16:03;;;;;;;;;0.00;0.00;;;;;20.50;48.11;101029.38;4920017;28;45340;-74
2023/12/21 10:18:29;;;;;;;;;0.33;0.33;;;;;20.44;48.14;101011.53;4919930;28;45253;-74
2023/12/21 10:20:55;;;;;;;;;0.00;0.00;;;;;20.48;47.68;101021.59;4919947;28;45370;-74
2023/12/21 10:23:20;;;;;;;;;0.00;0.00;;;;;20.51;47.89;101016.00;4919732;28;45382;-74
2023/12/21 10:25:46;;;;;;;;;0.33;0.00;;;;;20.46;47.89;101010.38;4919803;28;45428;-74
2023/12/21 10:28:12;;;;;;;;;0.00;0.00;;;;;20.51;47.60;101031.84;4919944;28;45544;-73
2023/12/21 10:30:38;;;;;;;;;0.00;0.00;;;;;20.53;48.30;101065.22;4919780;28;45389;-74
2023/12/21 10:33:03;;;;;;;;;0.00;0.00;;;;;20.51;48.06;101055.63;4919790;28;45342;-74
2023/12/21 10:35:29;;;;;;;;;0.33;0.33;;;;;20.52;47.73;101045.91;4919232;28;47150;-74
2023/12/21 10:37:56;;;;;;;;;0.67;0.67;;;;;20.51;47.90;101053.00;4918426;28;45320;-74
2023/12/21 10:40:22;;;;;;;;;0.00;0.00;;;;;20.51;48.06;101044.22;4919760;28;45358;-74
2023/12/21 10:42:49;;;;;;;;;1.00;1.00;;;;;20.52;47.99;101053.81;4919615;28;45423;-74
2023/12/21 10:45:16;;;;;;;;;1.00;0.00;;;;;20.50;47.88;101051.38;4919200;28;46376;-74
2023/12/21 10:47:50;;;;;;;;;0.00;0.00;;;;;20.45;47.91;100989.41;4919156;28;45380;-74
2023/12/21 10:50:17;;;;;;;;;0.00;0.00;;;;;20.49;48.07;101010.06;4919048;28;45548;-74
2023/12/21 10:52:44;;;;;;;;;1.00;1.00;;;;;20.49;48.06;101002.13;4919412;28;45439;-74
2023/12/21 10:55:14;;;;;;;;;0.00;0.00;;;;;20.48;47.96;100978.50;4919298;28;45954;-74
2023/12/21 10:57:41;;;;;;;;;1.00;0.33;;;;;20.48;47.69;100975.88;4919233;28;45447;-74
2023/12/21 11:00:12;;;;;;;;;0.00;0.00;;;;;20.48;47.96;100965.28;4919365;28;45368;-74
2023/12/21 11:02:57;;;;;;;;;1.33;1.33;;;;;20.48;48.19;100975.88;4918486;28;45228;-74
2023/12/21 11:05:24;;;;;;;;;0.00;0.00;;;;;20.47;48.11;100945.13;4918689;28;45414;-74
2023/12/21 11:07:50;;;;;;;;;1.00;1.00;;;;;20.47;47.55;100968.91;4919192;28;45327;-74
2023/12/21 11:10:17;;;;;;;;;0.33;0.33;;;;;20.48;48.03;100960.00;4919125;28;45420;-74
2023/12/21 11:12:43;;;;;;;;;0.67;0.33;;;;;20.48;48.01;100960.81;4919035;28;45380;-74
2023/12/21 11:15:09;;;;;;;;;0.33;0.00;;;;;20.40;48.11;100937.84;4919104;28;46068;-74
2023/12/21 11:17:35;;;;;;;;;1.33;0.67;;;;;20.46;47.96;100936.38;4917873;28;45539;-74